sensor_id;sensor_type;location;lat;lon;timestamp;P1;durP1;ratioP1;P2;durP2;ratioP2
39982;SDS011;25670;44.782;10.356;2023-07-29T00:00:41;3.05;;;2.03;;
39982;SDS011;25670;44.782;10.356;2023-07-29T00:03:08;5.55;;;1.75;;
39982;SDS011;25670;44.782;10.356;2023-07-29T00:05:35;3.45;;;2.67;;
39982;SDS011;25670;44.782;10.356;2023-07-29T00:08:03;4.72;;;2.17;;
39982;SDS011;25670;44.782;10.356;2023-07-29T00:10:35;2.33;;;2.13;;
39982;SDS011;25670;44.782;10.356;2023-07-29T00:13:03;2.45;;;2.08;;
39982;SDS011;25670;44.782;10.356;2023-07-29T00:15:29;3.15;;;2.42;;
39982;SDS011;25670;44.782;10.356;2023-07-29T00:17:55;4.00;;;2.35;;
39982;SDS011;25670;44.782;10.356;2023-07-29T00:20:22;5.47;;;2.60;;
39982;SDS011;25670;44.782;10.356;2023-07-29T00:22:48;4.63;;;2.60;;
39982;SDS011;25670;44.782;10.356;2023-07-29T00:25:22;4.05;;;2.33;;
39982;SDS011;25670;44.782;10.356;2023-07-29T00:27:48;3.90;;;2.85;;
39982;SDS011;25670;44.782;10.356;2023-07-29T00:30:14;3.22;;;2.90;;
39982;SDS011;25670;44.782;10.356;2023-07-29T00:32:42;2.90;;;2.53;;
39982;SDS011;25670;44.782;10.356;2023-07-29T00:35:08;5.97;;;3.08;;
39982;SDS011;25670;44.782;10.356;2023-07-29T00:37:36;2.85;;;2.65;;
39982;SDS011;25670;44.782;10.356;2023-07-29T00:40:06;3.63;;;2.67;;
39982;SDS011;25670;44.782;10.356;2023-07-29T00:42:39;2.50;;;2.30;;
39982;SDS011;25670;44.782;10.356;2023-07-29T00:45:08;5.70;;;3.58;;
39982;SDS011;25670;44.782;10.356;2023-07-29T00:47:35;3.78;;;2.60;;
39982;SDS011;25670;44.782;10.356;2023-07-29T00:50:02;2.90;;;2.70;;
39982;SDS011;25670;44.782;10.356;2023-07-29T00:52:30;2.78;;;2.55;;
39982;SDS011;25670;44.782;10.356;2023-07-29T00:54:56;3.13;;;2.40;;
39982;SDS011;25670;44.782;10.356;2023-07-29T00:57:22;2.97;;;2.70;;
39982;SDS011;25670;44.782;10.356;2023-07-29T00:59:51;3.50;;;2.35;;
39982;SDS011;25670;44.782;10.356;2023-07-29T01:02:17;3.97;;;2.70;;
39982;SDS011;25670;44.782;10.356;2023-07-29T01:04:44;3.70;;;3.05;;
39982;SDS011;25670;44.782;10.356;2023-07-29T01:13:00;3.20;;;2.90;;
39982;SDS011;25670;44.782;10.356;2023-07-29T01:15:41;2.75;;;2.55;;
39982;SDS011;25670;44.782;10.356;2023-07-29T01:18:27;3.50;;;3.20;;
39982;SDS011;25670;44.782;10.356;2023-07-29T01:21:00;4.03;;;3.15;;
39982;SDS011;25670;44.782;10.356;2023-07-29T01:23:35;3.15;;;2.95;;
39982;SDS011;25670;44.782;10.356;2023-07-29T01:26:02;7.25;;;3.20;;
39982;SDS011;25670;44.782;10.356;2023-07-29T01:28:29;3.30;;;3.03;;
39982;SDS011;25670;44.782;10.356;2023-07-29T01:30:57;3.22;;;2.92;;
39982;SDS011;25670;44.782;10.356;2023-07-29T01:33:48;2.90;;;2.70;;
39982;SDS011;25670;44.782;10.356;2023-07-29T01:36:22;3.33;;;3.13;;
39982;SDS011;25670;44.782;10.356;2023-07-29T01:41:20;2.90;;;2.70;;
39982;SDS011;25670;44.782;10.356;2023-07-29T01:43:48;3.03;;;2.50;;
39982;SDS011;25670;44.782;10.356;2023-07-29T01:46:15;6.43;;;2.75;;
39982;SDS011;25670;44.782;10.356;2023-07-29T01:48:42;2.85;;;2.50;;
39982;SDS011;25670;44.782;10.356;2023-07-29T01:51:10;3.90;;;3.00;;
39982;SDS011;25670;44.782;10.356;2023-07-29T01:53:37;4.00;;;2.88;;
39982;SDS011;25670;44.782;10.356;2023-07-29T01:56:03;8.35;;;2.75;;
39982;SDS011;25670;44.782;10.356;2023-07-29T01:58:31;3.08;;;2.78;;
39982;SDS011;25670;44.782;10.356;2023-07-29T02:00:57;6.68;;;2.60;;
39982;SDS011;25670;44.782;10.356;2023-07-29T02:03:24;5.75;;;3.10;;
39982;SDS011;25670;44.782;10.356;2023-07-29T02:05:50;5.72;;;3.75;;
39982;SDS011;25670;44.782;10.356;2023-07-29T02:08:17;5.22;;;3.67;;
39982;SDS011;25670;44.782;10.356;2023-07-29T02:10:43;4.00;;;3.60;;
39982;SDS011;25670;44.782;10.356;2023-07-29T02:13:11;8.20;;;4.45;;
39982;SDS011;25670;44.782;10.356;2023-07-29T02:15:38;4.05;;;3.75;;
39982;SDS011;25670;44.782;10.356;2023-07-29T02:18:04;5.00;;;3.95;;
39982;SDS011;25670;44.782;10.356;2023-07-29T02:20:32;4.72;;;4.32;;
39982;SDS011;25670;44.782;10.356;2023-07-29T02:22:58;4.30;;;3.80;;
39982;SDS011;25670;44.782;10.356;2023-07-29T02:25:25;4.78;;;4.25;;
39982;SDS011;25670;44.782;10.356;2023-07-29T02:27:51;4.82;;;4.40;;
39982;SDS011;25670;44.782;10.356;2023-07-29T02:30:18;4.53;;;4.18;;
39982;SDS011;25670;44.782;10.356;2023-07-29T02:32:44;5.00;;;4.18;;
39982;SDS011;25670;44.782;10.356;2023-07-29T02:35:11;4.53;;;3.80;;
39982;SDS011;25670;44.782;10.356;2023-07-29T02:37:38;4.25;;;3.90;;
39982;SDS011;25670;44.782;10.356;2023-07-29T02:40:04;6.15;;;4.43;;
39982;SDS011;25670;44.782;10.356;2023-07-29T02:42:31;4.75;;;4.20;;
39982;SDS011;25670;44.782;10.356;2023-07-29T02:44:58;4.30;;;3.80;;
39982;SDS011;25670;44.782;10.356;2023-07-29T02:47:24;5.65;;;3.55;;
39982;SDS011;25670;44.782;10.356;2023-07-29T02:49:51;5.20;;;3.90;;
39982;SDS011;25670;44.782;10.356;2023-07-29T02:52:17;3.72;;;3.42;;
39982;SDS011;25670;44.782;10.356;2023-07-29T02:54:44;4.60;;;4.20;;
39982;SDS011;25670;44.782;10.356;2023-07-29T02:57:10;5.22;;;3.83;;
39982;SDS011;25670;44.782;10.356;2023-07-29T02:59:36;5.13;;;4.45;;
39982;SDS011;25670;44.782;10.356;2023-07-29T03:02:03;4.95;;;4.45;;
39982;SDS011;25670;44.782;10.356;2023-07-29T03:04:29;6.70;;;5.70;;
39982;SDS011;25670;44.782;10.356;2023-07-29T03:06:56;6.55;;;5.65;;
39982;SDS011;25670;44.782;10.356;2023-07-29T03:09:22;6.85;;;5.97;;
39982;SDS011;25670;44.782;10.356;2023-07-29T03:11:48;6.95;;;6.03;;
39982;SDS011;25670;44.782;10.356;2023-07-29T03:14:16;7.82;;;5.28;;
39982;SDS011;25670;44.782;10.356;2023-07-29T03:16:43;9.73;;;6.38;;
39982;SDS011;25670;44.782;10.356;2023-07-29T03:19:09;14.32;;;6.43;;
39982;SDS011;25670;44.782;10.356;2023-07-29T03:21:36;11.43;;;6.82;;
39982;SDS011;25670;44.782;10.356;2023-07-29T03:24:03;6.70;;;6.13;;
39982;SDS011;25670;44.782;10.356;2023-07-29T03:26:29;9.50;;;6.30;;
39982;SDS011;25670;44.782;10.356;2023-07-29T03:28:55;6.57;;;5.30;;
39982;SDS011;25670;44.782;10.356;2023-07-29T03:31:21;6.72;;;6.13;;
39982;SDS011;25670;44.782;10.356;2023-07-29T03:33:48;6.30;;;5.13;;
39982;SDS011;25670;44.782;10.356;2023-07-29T03:36:14;6.43;;;4.85;;
39982;SDS011;25670;44.782;10.356;2023-07-29T03:38:41;5.30;;;4.82;;
39982;SDS011;25670;44.782;10.356;2023-07-29T03:41:08;6.65;;;6.05;;
39982;SDS011;25670;44.782;10.356;2023-07-29T03:43:35;6.47;;;5.97;;
39982;SDS011;25670;44.782;10.356;2023-07-29T03:46:02;6.95;;;6.30;;
39982;SDS011;25670;44.782;10.356;2023-07-29T03:48:28;11.10;;;7.10;;
39982;SDS011;25670;44.782;10.356;2023-07-29T03:50:56;6.60;;;6.10;;
39982;SDS011;25670;44.782;10.356;2023-07-29T03:53:23;6.15;;;5.75;;
39982;SDS011;25670;44.782;10.356;2023-07-29T03:55:49;6.40;;;5.90;;
39982;SDS011;25670;44.782;10.356;2023-07-29T03:58:16;6.50;;;5.97;;
39982;SDS011;25670;44.782;10.356;2023-07-29T04:00:42;6.20;;;5.70;;
39982;SDS011;25670;44.782;10.356;2023-07-29T04:03:09;6.20;;;5.70;;
39982;SDS011;25670;44.782;10.356;2023-07-29T04:05:35;10.13;;;6.13;;
39982;SDS011;25670;44.782;10.356;2023-07-29T04:08:01;5.68;;;5.13;;
39982;SDS011;25670;44.782;10.356;2023-07-29T04:10:28;5.95;;;5.55;;
39982;SDS011;25670;44.782;10.356;2023-07-29T04:12:57;6.90;;;6.03;;
39982;SDS011;25670;44.782;10.356;2023-07-29T04:15:23;5.75;;;4.97;;
39982;SDS011;25670;44.782;10.356;2023-07-29T04:17:50;5.57;;;5.18;;
39982;SDS011;25670;44.782;10.356;2023-07-29T04:20:16;6.13;;;4.43;;
39982;SDS011;25670;44.782;10.356;2023-07-29T04:22:42;6.35;;;4.78;;
39982;SDS011;25670;44.782;10.356;2023-07-29T04:25:09;5.20;;;4.70;;
39982;SDS011;25670;44.782;10.356;2023-07-29T04:27:36;5.40;;;4.90;;
39982;SDS011;25670;44.782;10.356;2023-07-29T04:30:02;5.18;;;4.50;;
39982;SDS011;25670;44.782;10.356;2023-07-29T04:32:29;5.80;;;4.90;;
39982;SDS011;25670;44.782;10.356;2023-07-29T04:34:55;5.65;;;4.60;;
39982;SDS011;25670;44.782;10.356;2023-07-29T04:37:22;6.65;;;5.15;;
39982;SDS011;25670;44.782;10.356;2023-07-29T04:39:48;5.45;;;4.93;;
39982;SDS011;25670;44.782;10.356;2023-07-29T04:42:14;10.40;;;5.43;;
39982;SDS011;25670;44.782;10.356;2023-07-29T04:44:41;6.03;;;5.53;;
39982;SDS011;25670;44.782;10.356;2023-07-29T04:47:07;5.85;;;4.97;;
39982;SDS011;25670;44.782;10.356;2023-07-29T04:49:34;6.43;;;5.13;;
39982;SDS011;25670;44.782;10.356;2023-07-29T04:52:00;7.65;;;4.88;;
39982;SDS011;25670;44.782;10.356;2023-07-29T04:54:27;4.65;;;4.25;;
39982;SDS011;25670;44.782;10.356;2023-07-29T04:56:53;8.95;;;5.57;;
39982;SDS011;25670;44.782;10.356;2023-07-29T04:59:19;14.32;;;5.40;;
39982;SDS011;25670;44.782;10.356;2023-07-29T05:01:45;10.98;;;4.90;;
39982;SDS011;25670;44.782;10.356;2023-07-29T05:04:12;6.13;;;5.28;;
39982;SDS011;25670;44.782;10.356;2023-07-29T05:06:39;8.52;;;4.97;;
39982;SDS011;25670;44.782;10.356;2023-07-29T05:09:18;6.85;;;5.78;;
39982;SDS011;25670;44.782;10.356;2023-07-29T05:11:45;6.50;;;5.50;;
39982;SDS011;25670;44.782;10.356;2023-07-29T05:14:13;5.28;;;4.90;;
39982;SDS011;25670;44.782;10.356;2023-07-29T05:16:40;5.78;;;5.25;;
39982;SDS011;25670;44.782;10.356;2023-07-29T05:19:06;5.85;;;5.38;;
39982;SDS011;25670;44.782;10.356;2023-07-29T05:21:32;9.80;;;5.93;;
39982;SDS011;25670;44.782;10.356;2023-07-29T05:23:59;10.20;;;5.82;;
39982;SDS011;25670;44.782;10.356;2023-07-29T05:26:25;6.93;;;5.78;;
39982;SDS011;25670;44.782;10.356;2023-07-29T05:28:52;6.00;;;5.40;;
39982;SDS011;25670;44.782;10.356;2023-07-29T05:31:18;8.00;;;6.57;;
39982;SDS011;25670;44.782;10.356;2023-07-29T05:33:45;6.15;;;5.57;;
39982;SDS011;25670;44.782;10.356;2023-07-29T05:36:11;7.38;;;5.50;;
39982;SDS011;25670;44.782;10.356;2023-07-29T05:38:38;6.13;;;5.47;;
39982;SDS011;25670;44.782;10.356;2023-07-29T05:41:04;7.90;;;5.55;;
39982;SDS011;25670;44.782;10.356;2023-07-29T05:43:30;6.70;;;6.00;;
39982;SDS011;25670;44.782;10.356;2023-07-29T05:45:56;6.00;;;5.20;;
39982;SDS011;25670;44.782;10.356;2023-07-29T05:48:22;5.55;;;5.15;;
39982;SDS011;25670;44.782;10.356;2023-07-29T05:50:51;7.95;;;5.55;;
39982;SDS011;25670;44.782;10.356;2023-07-29T05:53:18;6.43;;;5.88;;
39982;SDS011;25670;44.782;10.356;2023-07-29T05:55:44;7.82;;;6.55;;
39982;SDS011;25670;44.782;10.356;2023-07-29T05:58:10;5.78;;;4.80;;
39982;SDS011;25670;44.782;10.356;2023-07-29T06:00:36;5.72;;;3.92;;
39982;SDS011;25670;44.782;10.356;2023-07-29T06:03:02;4.50;;;4.10;;
39982;SDS011;25670;44.782;10.356;2023-07-29T06:05:29;7.22;;;3.88;;
39982;SDS011;25670;44.782;10.356;2023-07-29T06:07:55;6.68;;;4.40;;
39982;SDS011;25670;44.782;10.356;2023-07-29T06:10:21;5.75;;;4.20;;
39982;SDS011;25670;44.782;10.356;2023-07-29T06:12:47;5.30;;;4.45;;
39982;SDS011;25670;44.782;10.356;2023-07-29T06:15:14;4.90;;;4.35;;
39982;SDS011;25670;44.782;10.356;2023-07-29T06:17:41;7.50;;;4.18;;
39982;SDS011;25670;44.782;10.356;2023-07-29T06:20:07;4.82;;;4.47;;
39982;SDS011;25670;44.782;10.356;2023-07-29T06:22:34;8.35;;;4.18;;
39982;SDS011;25670;44.782;10.356;2023-07-29T06:25:00;5.45;;;5.00;;
39982;SDS011;25670;44.782;10.356;2023-07-29T06:27:26;4.28;;;3.88;;
39982;SDS011;25670;44.782;10.356;2023-07-29T06:29:52;4.63;;;3.95;;
39982;SDS011;25670;44.782;10.356;2023-07-29T06:32:18;7.45;;;4.03;;
39982;SDS011;25670;44.782;10.356;2023-07-29T06:34:44;7.45;;;4.13;;
39982;SDS011;25670;44.782;10.356;2023-07-29T06:37:11;6.15;;;4.18;;
39982;SDS011;25670;44.782;10.356;2023-07-29T06:39:37;4.78;;;3.58;;
39982;SDS011;25670;44.782;10.356;2023-07-29T06:42:03;3.90;;;3.28;;
39982;SDS011;25670;44.782;10.356;2023-07-29T06:44:30;6.55;;;4.13;;
39982;SDS011;25670;44.782;10.356;2023-07-29T06:46:57;4.20;;;3.72;;
39982;SDS011;25670;44.782;10.356;2023-07-29T06:49:24;4.10;;;3.70;;
39982;SDS011;25670;44.782;10.356;2023-07-29T06:51:50;5.18;;;4.32;;
39982;SDS011;25670;44.782;10.356;2023-07-29T06:54:16;5.95;;;4.07;;
39982;SDS011;25670;44.782;10.356;2023-07-29T06:56:43;4.25;;;3.85;;
39982;SDS011;25670;44.782;10.356;2023-07-29T06:59:09;7.55;;;3.40;;
39982;SDS011;25670;44.782;10.356;2023-07-29T07:01:35;4.07;;;3.08;;
39982;SDS011;25670;44.782;10.356;2023-07-29T07:04:01;4.38;;;3.13;;
39982;SDS011;25670;44.782;10.356;2023-07-29T07:06:28;5.43;;;3.08;;
39982;SDS011;25670;44.782;10.356;2023-07-29T07:08:54;4.25;;;3.25;;
39982;SDS011;25670;44.782;10.356;2023-07-29T07:11:20;4.10;;;3.50;;
39982;SDS011;25670;44.782;10.356;2023-07-29T07:13:46;3.60;;;3.28;;
39982;SDS011;25670;44.782;10.356;2023-07-29T07:16:12;3.17;;;2.88;;
39982;SDS011;25670;44.782;10.356;2023-07-29T07:18:39;6.78;;;2.80;;
39982;SDS011;25670;44.782;10.356;2023-07-29T07:21:05;5.85;;;3.17;;
39982;SDS011;25670;44.782;10.356;2023-07-29T07:23:31;4.82;;;2.83;;
39982;SDS011;25670;44.782;10.356;2023-07-29T07:25:57;2.67;;;2.47;;
39982;SDS011;25670;44.782;10.356;2023-07-29T07:28:23;9.30;;;3.40;;
39982;SDS011;25670;44.782;10.356;2023-07-29T07:30:51;6.15;;;3.42;;
39982;SDS011;25670;44.782;10.356;2023-07-29T07:33:17;5.78;;;3.17;;
39982;SDS011;25670;44.782;10.356;2023-07-29T07:35:43;8.18;;;3.17;;
39982;SDS011;25670;44.782;10.356;2023-07-29T07:38:09;6.63;;;3.13;;
39982;SDS011;25670;44.782;10.356;2023-07-29T07:40:36;3.08;;;2.67;;
39982;SDS011;25670;44.782;10.356;2023-07-29T07:43:02;4.03;;;2.88;;
39982;SDS011;25670;44.782;10.356;2023-07-29T07:45:28;8.20;;;2.95;;
39982;SDS011;25670;44.782;10.356;2023-07-29T07:47:56;4.47;;;2.67;;
39982;SDS011;25670;44.782;10.356;2023-07-29T07:50:22;5.28;;;3.13;;
39982;SDS011;25670;44.782;10.356;2023-07-29T07:52:49;4.50;;;2.72;;
39982;SDS011;25670;44.782;10.356;2023-07-29T07:55:16;6.63;;;2.90;;
39982;SDS011;25670;44.782;10.356;2023-07-29T07:57:42;9.23;;;3.42;;
39982;SDS011;25670;44.782;10.356;2023-07-29T08:00:09;3.15;;;2.55;;
39982;SDS011;25670;44.782;10.356;2023-07-29T08:02:38;4.53;;;2.88;;
39982;SDS011;25670;44.782;10.356;2023-07-29T08:05:05;7.38;;;2.40;;
39982;SDS011;25670;44.782;10.356;2023-07-29T08:07:31;3.45;;;2.63;;
39982;SDS011;25670;44.782;10.356;2023-07-29T08:09:57;3.67;;;2.75;;
39982;SDS011;25670;44.782;10.356;2023-07-29T08:12:23;4.10;;;2.25;;
39982;SDS011;25670;44.782;10.356;2023-07-29T08:14:51;4.25;;;2.70;;
39982;SDS011;25670;44.782;10.356;2023-07-29T08:17:17;6.95;;;3.00;;
39982;SDS011;25670;44.782;10.356;2023-07-29T08:19:43;3.92;;;3.33;;
39982;SDS011;25670;44.782;10.356;2023-07-29T08:22:10;2.67;;;2.47;;
39982;SDS011;25670;44.782;10.356;2023-07-29T08:24:36;5.28;;;3.20;;
39982;SDS011;25670;44.782;10.356;2023-07-29T08:27:02;3.15;;;2.80;;
39982;SDS011;25670;44.782;10.356;2023-07-29T08:29:28;3.95;;;3.20;;
39982;SDS011;25670;44.782;10.356;2023-07-29T08:31:54;4.60;;;2.72;;
39982;SDS011;25670;44.782;10.356;2023-07-29T08:34:21;4.57;;;2.60;;
39982;SDS011;25670;44.782;10.356;2023-07-29T08:36:47;3.70;;;3.38;;
39982;SDS011;25670;44.782;10.356;2023-07-29T08:39:13;7.07;;;2.80;;
39982;SDS011;25670;44.782;10.356;2023-07-29T08:41:46;5.97;;;3.22;;
39982;SDS011;25670;44.782;10.356;2023-07-29T08:44:23;3.70;;;3.15;;
39982;SDS011;25670;44.782;10.356;2023-07-29T08:46:53;7.13;;;3.40;;
39982;SDS011;25670;44.782;10.356;2023-07-29T08:49:21;4.40;;;2.90;;
39982;SDS011;25670;44.782;10.356;2023-07-29T08:51:52;4.70;;;2.97;;
39982;SDS011;25670;44.782;10.356;2023-07-29T08:54:20;6.80;;;2.72;;
39982;SDS011;25670;44.782;10.356;2023-07-29T08:56:47;4.57;;;2.53;;
39982;SDS011;25670;44.782;10.356;2023-07-29T08:59:14;3.25;;;2.95;;
39982;SDS011;25670;44.782;10.356;2023-07-29T09:01:42;3.50;;;2.67;;
39982;SDS011;25670;44.782;10.356;2023-07-29T09:04:09;3.72;;;3.22;;
39982;SDS011;25670;44.782;10.356;2023-07-29T09:06:35;2.95;;;2.75;;
39982;SDS011;25670;44.782;10.356;2023-07-29T09:09:04;3.28;;;2.95;;
39982;SDS011;25670;44.782;10.356;2023-07-29T09:11:30;4.00;;;3.38;;
39982;SDS011;25670;44.782;10.356;2023-07-29T09:13:58;4.57;;;3.30;;
39982;SDS011;25670;44.782;10.356;2023-07-29T09:16:26;3.60;;;3.33;;
39982;SDS011;25670;44.782;10.356;2023-07-29T09:18:53;4.63;;;3.25;;
39982;SDS011;25670;44.782;10.356;2023-07-29T09:21:24;11.02;;;3.05;;
39982;SDS011;25670;44.782;10.356;2023-07-29T09:23:52;6.47;;;3.15;;
39982;SDS011;25670;44.782;10.356;2023-07-29T09:26:22;4.50;;;3.40;;
39982;SDS011;25670;44.782;10.356;2023-07-29T09:28:57;3.70;;;3.40;;
39982;SDS011;25670;44.782;10.356;2023-07-29T09:31:25;5.20;;;3.40;;
39982;SDS011;25670;44.782;10.356;2023-07-29T09:33:56;3.60;;;3.30;;
39982;SDS011;25670;44.782;10.356;2023-07-29T09:36:24;4.70;;;3.15;;
39982;SDS011;25670;44.782;10.356;2023-07-29T09:38:54;3.42;;;3.13;;
39982;SDS011;25670;44.782;10.356;2023-07-29T09:41:25;4.77;;;3.10;;
39982;SDS011;25670;44.782;10.356;2023-07-29T09:43:59;3.42;;;2.53;;
39982;SDS011;25670;44.782;10.356;2023-07-29T09:46:31;3.80;;;3.10;;
39982;SDS011;25670;44.782;10.356;2023-07-29T09:49:02;3.00;;;2.50;;
39982;SDS011;25670;44.782;10.356;2023-07-29T09:51:30;3.80;;;2.55;;
39982;SDS011;25670;44.782;10.356;2023-07-29T09:53:56;3.90;;;2.70;;
39982;SDS011;25670;44.782;10.356;2023-07-29T09:56:25;3.10;;;2.78;;
39982;SDS011;25670;44.782;10.356;2023-07-29T09:58:52;3.38;;;2.70;;
39982;SDS011;25670;44.782;10.356;2023-07-29T10:01:21;4.20;;;2.70;;
39982;SDS011;25670;44.782;10.356;2023-07-29T10:03:47;6.35;;;3.03;;
39982;SDS011;25670;44.782;10.356;2023-07-29T10:06:14;6.03;;;3.05;;
39982;SDS011;25670;44.782;10.356;2023-07-29T10:08:42;5.80;;;2.90;;
39982;SDS011;25670;44.782;10.356;2023-07-29T10:11:09;3.88;;;3.25;;
39982;SDS011;25670;44.782;10.356;2023-07-29T10:13:37;9.77;;;3.03;;
39982;SDS011;25670;44.782;10.356;2023-07-29T10:16:03;4.93;;;2.75;;
39982;SDS011;25670;44.782;10.356;2023-07-29T10:18:31;3.53;;;3.22;;
39982;SDS011;25670;44.782;10.356;2023-07-29T10:20:58;11.20;;;2.67;;
39982;SDS011;25670;44.782;10.356;2023-07-29T10:23:26;4.22;;;3.35;;
39982;SDS011;25670;44.782;10.356;2023-07-29T10:25:55;6.97;;;2.72;;
39982;SDS011;25670;44.782;10.356;2023-07-29T10:28:29;3.05;;;2.72;;
39982;SDS011;25670;44.782;10.356;2023-07-29T10:30:56;4.25;;;2.90;;
39982;SDS011;25670;44.782;10.356;2023-07-29T10:33:23;4.05;;;3.03;;
39982;SDS011;25670;44.782;10.356;2023-07-29T10:35:51;3.15;;;2.30;;
39982;SDS011;25670;44.782;10.356;2023-07-29T10:38:20;3.42;;;2.80;;
39982;SDS011;25670;44.782;10.356;2023-07-29T10:40:52;2.55;;;2.35;;
39982;SDS011;25670;44.782;10.356;2023-07-29T10:43:26;3.22;;;2.40;;
39982;SDS011;25670;44.782;10.356;2023-07-29T10:45:54;3.05;;;2.55;;
39982;SDS011;25670;44.782;10.356;2023-07-29T10:53:47;7.07;;;3.10;;
39982;SDS011;25670;44.782;10.356;2023-07-29T10:56:24;4.68;;;2.30;;
39982;SDS011;25670;44.782;10.356;2023-07-29T10:58:58;3.88;;;2.42;;
39982;SDS011;25670;44.782;10.356;2023-07-29T11:01:56;3.55;;;2.47;;
39982;SDS011;25670;44.782;10.356;2023-07-29T11:15:03;6.35;;;3.13;;
39982;SDS011;25670;44.782;10.356;2023-07-29T11:17:30;5.00;;;2.40;;
39982;SDS011;25670;44.782;10.356;2023-07-29T11:20:00;2.55;;;2.35;;
39982;SDS011;25670;44.782;10.356;2023-07-29T11:22:28;3.13;;;2.83;;
39982;SDS011;25670;44.782;10.356;2023-07-29T11:24:55;3.25;;;2.28;;
39982;SDS011;25670;44.782;10.356;2023-07-29T11:27:22;5.00;;;2.28;;
39982;SDS011;25670;44.782;10.356;2023-07-29T11:29:48;2.08;;;1.98;;
39982;SDS011;25670;44.782;10.356;2023-07-29T11:32:15;3.65;;;1.70;;
39982;SDS011;25670;44.782;10.356;2023-07-29T11:34:42;3.33;;;2.20;;
39982;SDS011;25670;44.782;10.356;2023-07-29T11:37:09;3.55;;;2.35;;
39982;SDS011;25670;44.782;10.356;2023-07-29T11:39:43;2.75;;;2.17;;
39982;SDS011;25670;44.782;10.356;2023-07-29T11:42:13;2.42;;;2.30;;
39982;SDS011;25670;44.782;10.356;2023-07-29T11:44:40;4.22;;;2.08;;
39982;SDS011;25670;44.782;10.356;2023-07-29T11:47:10;3.15;;;2.35;;
39982;SDS011;25670;44.782;10.356;2023-07-29T11:49:38;2.63;;;2.10;;
39982;SDS011;25670;44.782;10.356;2023-07-29T11:52:06;2.15;;;1.95;;
39982;SDS011;25670;44.782;10.356;2023-07-29T11:54:34;2.05;;;1.88;;
39982;SDS011;25670;44.782;10.356;2023-07-29T11:57:06;2.38;;;2.17;;
39982;SDS011;25670;44.782;10.356;2023-07-29T11:59:34;2.92;;;2.20;;
39982;SDS011;25670;44.782;10.356;2023-07-29T12:02:01;2.05;;;1.73;;
39982;SDS011;25670;44.782;10.356;2023-07-29T12:04:30;2.67;;;2.20;;
39982;SDS011;25670;44.782;10.356;2023-07-29T12:06:58;1.85;;;1.75;;
39982;SDS011;25670;44.782;10.356;2023-07-29T12:09:25;3.20;;;2.53;;
39982;SDS011;25670;44.782;10.356;2023-07-29T12:11:52;6.50;;;2.28;;
39982;SDS011;25670;44.782;10.356;2023-07-29T12:14:19;2.88;;;2.35;;
39982;SDS011;25670;44.782;10.356;2023-07-29T12:16:47;2.53;;;2.33;;
39982;SDS011;25670;44.782;10.356;2023-07-29T12:19:14;4.22;;;2.45;;
39982;SDS011;25670;44.782;10.356;2023-07-29T12:21:42;2.35;;;2.15;;
39982;SDS011;25670;44.782;10.356;2023-07-29T12:24:09;3.75;;;2.42;;
39982;SDS011;25670;44.782;10.356;2023-07-29T12:26:38;2.53;;;2.33;;
39982;SDS011;25670;44.782;10.356;2023-07-29T12:29:17;3.50;;;2.38;;
39982;SDS011;25670;44.782;10.356;2023-07-29T12:31:48;3.05;;;2.75;;
39982;SDS011;25670;44.782;10.356;2023-07-29T12:34:22;2.20;;;2.00;;
39982;SDS011;25670;44.782;10.356;2023-07-29T12:36:51;2.22;;;2.08;;
39982;SDS011;25670;44.782;10.356;2023-07-29T12:41:55;2.50;;;2.10;;
39982;SDS011;25670;44.782;10.356;2023-07-29T12:44:26;2.08;;;1.98;;
39982;SDS011;25670;44.782;10.356;2023-07-29T12:46:55;2.40;;;1.63;;
39982;SDS011;25670;44.782;10.356;2023-07-29T12:49:22;4.00;;;1.83;;
39982;SDS011;25670;44.782;10.356;2023-07-29T12:51:48;3.05;;;2.20;;
39982;SDS011;25670;44.782;10.356;2023-07-29T12:54:14;2.67;;;2.10;;
39982;SDS011;25670;44.782;10.356;2023-07-29T12:56:40;2.22;;;2.03;;
39982;SDS011;25670;44.782;10.356;2023-07-29T12:59:07;1.90;;;1.80;;
39982;SDS011;25670;44.782;10.356;2023-07-29T13:01:33;2.08;;;1.95;;
39982;SDS011;25670;44.782;10.356;2023-07-29T13:03:59;4.13;;;1.92;;
39982;SDS011;25670;44.782;10.356;2023-07-29T13:06:25;2.33;;;2.00;;
39982;SDS011;25670;44.782;10.356;2023-07-29T13:08:52;2.50;;;2.17;;
39982;SDS011;25670;44.782;10.356;2023-07-29T13:11:18;2.72;;;2.40;;
39982;SDS011;25670;44.782;10.356;2023-07-29T13:13:44;3.75;;;2.30;;
39982;SDS011;25670;44.782;10.356;2023-07-29T13:16:11;2.58;;;2.38;;
39982;SDS011;25670;44.782;10.356;2023-07-29T13:18:38;3.15;;;2.10;;
39982;SDS011;25670;44.782;10.356;2023-07-29T13:21:05;2.63;;;2.17;;
39982;SDS011;25670;44.782;10.356;2023-07-29T13:23:31;3.08;;;1.80;;
39982;SDS011;25670;44.782;10.356;2023-07-29T13:25:57;1.67;;;1.58;;
39982;SDS011;25670;44.782;10.356;2023-07-29T13:28:23;2.42;;;2.22;;
39982;SDS011;25670;44.782;10.356;2023-07-29T13:30:50;2.20;;;2.00;;
39982;SDS011;25670;44.782;10.356;2023-07-29T13:33:16;2.00;;;1.90;;
39982;SDS011;25670;44.782;10.356;2023-07-29T13:35:42;1.80;;;1.70;;
39982;SDS011;25670;44.782;10.356;2023-07-29T13:38:09;2.15;;;2.05;;
39982;SDS011;25670;44.782;10.356;2023-07-29T13:40:36;2.53;;;2.30;;
39982;SDS011;25670;44.782;10.356;2023-07-29T13:43:02;3.03;;;1.77;;
39982;SDS011;25670;44.782;10.356;2023-07-29T13:45:29;1.80;;;1.70;;
39982;SDS011;25670;44.782;10.356;2023-07-29T13:47:55;2.53;;;2.05;;
39982;SDS011;25670;44.782;10.356;2023-07-29T13:50:21;2.17;;;2.03;;
39982;SDS011;25670;44.782;10.356;2023-07-29T13:52:47;7.45;;;2.03;;
39982;SDS011;25670;44.782;10.356;2023-07-29T13:55:14;2.38;;;2.22;;
39982;SDS011;25670;44.782;10.356;2023-07-29T13:57:40;2.15;;;1.80;;
39982;SDS011;25670;44.782;10.356;2023-07-29T14:00:07;1.85;;;1.60;;
39982;SDS011;25670;44.782;10.356;2023-07-29T14:02:39;4.40;;;1.92;;
39982;SDS011;25670;44.782;10.356;2023-07-29T14:05:06;2.42;;;2.17;;
39982;SDS011;25670;44.782;10.356;2023-07-29T14:07:33;2.80;;;1.92;;
39982;SDS011;25670;44.782;10.356;2023-07-29T14:09:59;2.30;;;1.75;;
39982;SDS011;25670;44.782;10.356;2023-07-29T14:12:25;3.05;;;2.03;;
39982;SDS011;25670;44.782;10.356;2023-07-29T14:14:52;4.10;;;2.10;;
39982;SDS011;25670;44.782;10.356;2023-07-29T14:17:18;2.33;;;2.13;;
39982;SDS011;25670;44.782;10.356;2023-07-29T14:19:44;4.28;;;2.10;;
39982;SDS011;25670;44.782;10.356;2023-07-29T14:22:10;2.28;;;2.08;;
39982;SDS011;25670;44.782;10.356;2023-07-29T14:24:36;2.17;;;2.08;;
39982;SDS011;25670;44.782;10.356;2023-07-29T14:27:03;2.90;;;2.50;;
39982;SDS011;25670;44.782;10.356;2023-07-29T14:29:29;1.90;;;1.80;;
39982;SDS011;25670;44.782;10.356;2023-07-29T14:31:55;3.78;;;1.90;;
39982;SDS011;25670;44.782;10.356;2023-07-29T14:34:21;2.03;;;1.92;;
39982;SDS011;25670;44.782;10.356;2023-07-29T14:36:47;2.30;;;1.90;;
39982;SDS011;25670;44.782;10.356;2023-07-29T14:39:14;2.53;;;2.33;;
39982;SDS011;25670;44.782;10.356;2023-07-29T14:41:41;2.40;;;2.22;;
39982;SDS011;25670;44.782;10.356;2023-07-29T14:44:07;2.17;;;2.05;;
39982;SDS011;25670;44.782;10.356;2023-07-29T14:46:33;2.70;;;1.80;;
39982;SDS011;25670;44.782;10.356;2023-07-29T14:49:00;7.25;;;1.92;;
39982;SDS011;25670;44.782;10.356;2023-07-29T14:51:26;2.20;;;2.00;;
39982;SDS011;25670;44.782;10.356;2023-07-29T14:53:52;3.35;;;2.13;;
39982;SDS011;25670;44.782;10.356;2023-07-29T14:56:18;2.67;;;1.88;;
39982;SDS011;25670;44.782;10.356;2023-07-29T14:58:45;2.67;;;2.40;;
39982;SDS011;25670;44.782;10.356;2023-07-29T15:01:11;2.25;;;2.05;;